map of PXR home
PXR - Airport
Location
City:  Surin, Surin, Thailand
ICAO:VTUJ
IATA:PXR

Details
Type:Airport (Aerodrome, Airfield)
Latitude:1452'06"N (14.868264)
Longitude:10329'54"E (103.498256)
Datum:WGS 1984
Elevation:478 ft (146 m)
Variation:0.73W (WMM2015 magnetic declination)
-0.01 annual change
Runways:1
Longest:5053 × 115 ft (1540 × 35 m), paved

Time
Time Zone:UTC+7
Local Time:

Weather
TAF:VTUJ 131700Z 1318/1418 04007KT 8000 NSC
BECMG 1400/1402 05011KT CAVOK

Related Locations
Nearby:
Farthest:SPIA: 12360 mi / 19892 km
Ica, ICA, PE

Find:

   beyond  
but within

Other Information
Maps:
NOTAMs:
Links:
Sources:

  
  • flag of Thailand
  

Sectional Chart

Flight Planning
at skyvector.com

Satellite Image

Google Maps Satellite view

 

Copyright © 2004-2018 Karl L. Swartz. All rights reserved.
The Great Circle Mapper name and logo are trademarks of the Great Circle Mapper.
All other trademarks mentioned herein belong to their respective owners.
Please see credits for attibutions and further copyright information.

  Follow gcmap on Facebook Follow gcmap on Twitter Follow gcmap on Google+ GCmap on LinkedIn

hCard Microformat

Geo Microformat